sensor_id;sensor_type;location;lat;lon;timestamp;temperature;humidity
16040;DHT22;8124;48.634;8.120;2023-09-19T00:02:33;20.00;99.90
16040;DHT22;8124;48.634;8.120;2023-09-19T00:07:38;19.90;99.90
16040;DHT22;8124;48.634;8.120;2023-09-19T00:12:44;20.00;99.90
16040;DHT22;8124;48.634;8.120;2023-09-19T00:17:47;19.90;99.90
16040;DHT22;8124;48.634;8.120;2023-09-19T00:22:50;19.90;99.90
16040;DHT22;8124;48.634;8.120;2023-09-19T00:27:56;19.80;99.90
16040;DHT22;8124;48.634;8.120;2023-09-19T00:33:01;19.90;99.90
16040;DHT22;8124;48.634;8.120;2023-09-19T00:38:08;19.90;99.90
16040;DHT22;8124;48.634;8.120;2023-09-19T00:43:14;19.80;99.90
16040;DHT22;8124;48.634;8.120;2023-09-19T00:48:19;19.80;99.90
16040;DHT22;8124;48.634;8.120;2023-09-19T00:53:24;19.80;99.90
16040;DHT22;8124;48.634;8.120;2023-09-19T00:58:29;19.70;99.90
16040;DHT22;8124;48.634;8.120;2023-09-19T01:03:36;19.80;99.90
16040;DHT22;8124;48.634;8.120;2023-09-19T01:08:40;19.80;99.90
16040;DHT22;8124;48.634;8.120;2023-09-19T01:13:55;19.80;99.90
16040;DHT22;8124;48.634;8.120;2023-09-19T01:19:18;19.80;99.90
16040;DHT22;8124;48.634;8.120;2023-09-19T01:24:42;19.80;99.90
16040;DHT22;8124;48.634;8.120;2023-09-19T01:29:50;19.70;99.90
16040;DHT22;8124;48.634;8.120;2023-09-19T01:34:55;19.70;99.90
16040;DHT22;8124;48.634;8.120;2023-09-19T01:40:03;19.80;99.90
16040;DHT22;8124;48.634;8.120;2023-09-19T01:45:12;19.90;99.90
16040;DHT22;8124;48.634;8.120;2023-09-19T01:50:27;19.80;99.90
16040;DHT22;8124;48.634;8.120;2023-09-19T01:55:48;19.80;99.90
16040;DHT22;8124;48.634;8.120;2023-09-19T02:00:53;19.90;99.90
16040;DHT22;8124;48.634;8.120;2023-09-19T02:05:59;19.80;99.90
16040;DHT22;8124;48.634;8.120;2023-09-19T02:11:02;19.90;99.90
16040;DHT22;8124;48.634;8.120;2023-09-19T02:16:06;19.80;99.90
16040;DHT22;8124;48.634;8.120;2023-09-19T02:21:12;19.70;99.90
16040;DHT22;8124;48.634;8.120;2023-09-19T02:26:15;19.80;99.90
16040;DHT22;8124;48.634;8.120;2023-09-19T02:31:18;19.90;99.90
16040;DHT22;8124;48.634;8.120;2023-09-19T02:36:23;19.80;99.90
16040;DHT22;8124;48.634;8.120;2023-09-19T02:41:26;19.90;99.90
16040;DHT22;8124;48.634;8.120;2023-09-19T02:46:31;19.80;99.90
16040;DHT22;8124;48.634;8.120;2023-09-19T02:51:36;19.80;99.90
16040;DHT22;8124;48.634;8.120;2023-09-19T02:56:39;19.80;99.90
16040;DHT22;8124;48.634;8.120;2023-09-19T03:01:43;19.80;99.90
16040;DHT22;8124;48.634;8.120;2023-09-19T03:06:49;19.70;99.90
16040;DHT22;8124;48.634;8.120;2023-09-19T03:11:53;19.90;99.90
16040;DHT22;8124;48.634;8.120;2023-09-19T03:16:57;19.90;99.90
16040;DHT22;8124;48.634;8.120;2023-09-19T03:22:01;19.90;99.90
16040;DHT22;8124;48.634;8.120;2023-09-19T03:27:05;19.90;99.90
16040;DHT22;8124;48.634;8.120;2023-09-19T03:32:10;19.70;99.90
16040;DHT22;8124;48.634;8.120;2023-09-19T03:37:15;19.60;99.90
16040;DHT22;8124;48.634;8.120;2023-09-19T03:42:19;19.60;99.90
16040;DHT22;8124;48.634;8.120;2023-09-19T03:47:28;19.50;99.90
16040;DHT22;8124;48.634;8.120;2023-09-19T03:52:34;19.40;99.90
16040;DHT22;8124;48.634;8.120;2023-09-19T03:57:37;19.40;99.90
16040;DHT22;8124;48.634;8.120;2023-09-19T04:02:40;19.30;99.90
16040;DHT22;8124;48.634;8.120;2023-09-19T04:07:46;19.30;99.90
16040;DHT22;8124;48.634;8.120;2023-09-19T04:12:52;19.20;99.90
16040;DHT22;8124;48.634;8.120;2023-09-19T04:17:56;19.20;99.90
16040;DHT22;8124;48.634;8.120;2023-09-19T04:23:01;19.40;99.90
16040;DHT22;8124;48.634;8.120;2023-09-19T04:28:06;19.40;99.90
16040;DHT22;8124;48.634;8.120;2023-09-19T04:33:10;19.40;99.90
16040;DHT22;8124;48.634;8.120;2023-09-19T04:38:17;19.20;99.90
16040;DHT22;8124;48.634;8.120;2023-09-19T04:43:20;19.10;99.90
16040;DHT22;8124;48.634;8.120;2023-09-19T04:48:23;19.00;99.90
16040;DHT22;8124;48.634;8.120;2023-09-19T04:53:28;19.20;99.90
16040;DHT22;8124;48.634;8.120;2023-09-19T04:58:31;19.20;99.90
16040;DHT22;8124;48.634;8.120;2023-09-19T05:03:35;19.10;99.90
16040;DHT22;8124;48.634;8.120;2023-09-19T05:08:39;19.20;99.90
16040;DHT22;8124;48.634;8.120;2023-09-19T05:13:42;19.20;99.90
16040;DHT22;8124;48.634;8.120;2023-09-19T05:18:45;19.30;99.90
16040;DHT22;8124;48.634;8.120;2023-09-19T05:23:51;19.30;99.90
16040;DHT22;8124;48.634;8.120;2023-09-19T05:28:54;19.40;99.90
16040;DHT22;8124;48.634;8.120;2023-09-19T05:33:57;19.50;99.90
16040;DHT22;8124;48.634;8.120;2023-09-19T05:39:02;19.50;99.90
16040;DHT22;8124;48.634;8.120;2023-09-19T05:44:06;19.70;99.90
16040;DHT22;8124;48.634;8.120;2023-09-19T05:49:09;19.70;99.90
16040;DHT22;8124;48.634;8.120;2023-09-19T05:54:14;19.60;99.90
16040;DHT22;8124;48.634;8.120;2023-09-19T05:59:17;19.60;99.90
16040;DHT22;8124;48.634;8.120;2023-09-19T06:04:20;19.50;99.90
16040;DHT22;8124;48.634;8.120;2023-09-19T06:09:24;19.40;99.90
16040;DHT22;8124;48.634;8.120;2023-09-19T06:14:29;19.30;99.90
16040;DHT22;8124;48.634;8.120;2023-09-19T06:19:32;19.30;99.90
16040;DHT22;8124;48.634;8.120;2023-09-19T06:24:36;19.50;99.90
16040;DHT22;8124;48.634;8.120;2023-09-19T06:29:39;19.40;99.90
16040;DHT22;8124;48.634;8.120;2023-09-19T06:34:43;19.50;99.90
16040;DHT22;8124;48.634;8.120;2023-09-19T06:39:49;19.50;99.90
16040;DHT22;8124;48.634;8.120;2023-09-19T06:44:52;19.40;99.90
16040;DHT22;8124;48.634;8.120;2023-09-19T06:49:55;19.50;99.90
16040;DHT22;8124;48.634;8.120;2023-09-19T06:54:59;19.50;99.90
16040;DHT22;8124;48.634;8.120;2023-09-19T07:00:06;19.50;99.90
16040;DHT22;8124;48.634;8.120;2023-09-19T07:05:11;19.40;99.90
16040;DHT22;8124;48.634;8.120;2023-09-19T07:10:15;19.40;99.90
16040;DHT22;8124;48.634;8.120;2023-09-19T07:15:20;19.20;99.90
16040;DHT22;8124;48.634;8.120;2023-09-19T07:20:23;19.20;99.90
16040;DHT22;8124;48.634;8.120;2023-09-19T07:25:29;19.20;99.90
16040;DHT22;8124;48.634;8.120;2023-09-19T07:30:36;19.20;99.90
16040;DHT22;8124;48.634;8.120;2023-09-19T07:35:40;19.40;99.90
16040;DHT22;8124;48.634;8.120;2023-09-19T07:40:49;19.60;99.90
16040;DHT22;8124;48.634;8.120;2023-09-19T07:45:52;19.90;99.90
16040;DHT22;8124;48.634;8.120;2023-09-19T07:50:55;20.00;99.90
16040;DHT22;8124;48.634;8.120;2023-09-19T07:56:03;20.20;99.90
16040;DHT22;8124;48.634;8.120;2023-09-19T08:01:08;20.30;99.90
16040;DHT22;8124;48.634;8.120;2023-09-19T08:06:12;20.40;99.90
16040;DHT22;8124;48.634;8.120;2023-09-19T08:11:17;20.60;99.90
16040;DHT22;8124;48.634;8.120;2023-09-19T08:16:23;20.80;99.90
16040;DHT22;8124;48.634;8.120;2023-09-19T08:21:26;20.80;99.90
16040;DHT22;8124;48.634;8.120;2023-09-19T08:26:33;20.80;99.90
16040;DHT22;8124;48.634;8.120;2023-09-19T08:31:36;20.80;99.90
16040;DHT22;8124;48.634;8.120;2023-09-19T08:36:39;21.00;99.90
16040;DHT22;8124;48.634;8.120;2023-09-19T08:41:44;20.80;99.90
16040;DHT22;8124;48.634;8.120;2023-09-19T08:46:49;20.90;99.90
16040;DHT22;8124;48.634;8.120;2023-09-19T08:52:05;21.20;99.90
16040;DHT22;8124;48.634;8.120;2023-09-19T08:57:10;21.30;99.90
16040;DHT22;8124;48.634;8.120;2023-09-19T09:02:15;21.30;99.90
16040;DHT22;8124;48.634;8.120;2023-09-19T09:07:19;21.30;99.90
16040;DHT22;8124;48.634;8.120;2023-09-19T09:12:24;21.20;99.90
16040;DHT22;8124;48.634;8.120;2023-09-19T09:17:28;21.50;99.90
16040;DHT22;8124;48.634;8.120;2023-09-19T09:22:31;21.40;99.90
16040;DHT22;8124;48.634;8.120;2023-09-19T09:27:35;21.50;99.90
16040;DHT22;8124;48.634;8.120;2023-09-19T09:32:38;21.50;99.90
16040;DHT22;8124;48.634;8.120;2023-09-19T09:37:59;21.40;99.90
16040;DHT22;8124;48.634;8.120;2023-09-19T09:43:25;21.60;99.90
16040;DHT22;8124;48.634;8.120;2023-09-19T09:48:29;21.70;99.90
16040;DHT22;8124;48.634;8.120;2023-09-19T09:53:33;21.70;99.90
16040;DHT22;8124;48.634;8.120;2023-09-19T09:58:51;21.90;99.90
16040;DHT22;8124;48.634;8.120;2023-09-19T10:03:57;21.60;99.90
16040;DHT22;8124;48.634;8.120;2023-09-19T10:09:04;21.60;99.90
16040;DHT22;8124;48.634;8.120;2023-09-19T10:14:26;21.70;99.90
16040;DHT22;8124;48.634;8.120;2023-09-19T10:19:37;21.80;99.90
16040;DHT22;8124;48.634;8.120;2023-09-19T10:24:41;21.90;99.90
16040;DHT22;8124;48.634;8.120;2023-09-19T10:30:06;21.90;99.90
16040;DHT22;8124;48.634;8.120;2023-09-19T10:35:11;21.90;99.90
16040;DHT22;8124;48.634;8.120;2023-09-19T10:40:16;22.30;99.90
16040;DHT22;8124;48.634;8.120;2023-09-19T10:45:23;22.30;99.90
16040;DHT22;8124;48.634;8.120;2023-09-19T10:50:32;22.50;99.90
16040;DHT22;8124;48.634;8.120;2023-09-19T10:55:37;22.70;99.90
16040;DHT22;8124;48.634;8.120;2023-09-19T11:00:53;22.90;99.90
16040;DHT22;8124;48.634;8.120;2023-09-19T11:06:08;22.80;99.90
16040;DHT22;8124;48.634;8.120;2023-09-19T11:11:38;22.60;99.90
16040;DHT22;8124;48.634;8.120;2023-09-19T11:22:20;22.50;99.90
16040;DHT22;8124;48.634;8.120;2023-09-19T11:27:24;22.40;99.90
16040;DHT22;8124;48.634;8.120;2023-09-19T11:38:09;22.60;99.90
16040;DHT22;8124;48.634;8.120;2023-09-19T11:43:31;22.60;99.90
16040;DHT22;8124;48.634;8.120;2023-09-19T11:48:37;22.50;99.90
16040;DHT22;8124;48.634;8.120;2023-09-19T11:53:45;22.70;99.90
16040;DHT22;8124;48.634;8.120;2023-09-19T11:58:50;22.50;99.90
16040;DHT22;8124;48.634;8.120;2023-09-19T12:03:57;22.50;99.90
16040;DHT22;8124;48.634;8.120;2023-09-19T12:09:03;22.80;99.90
16040;DHT22;8124;48.634;8.120;2023-09-19T12:14:09;23.10;99.90
16040;DHT22;8124;48.634;8.120;2023-09-19T12:19:18;23.20;99.90
16040;DHT22;8124;48.634;8.120;2023-09-19T12:24:25;23.30;99.90
16040;DHT22;8124;48.634;8.120;2023-09-19T12:29:41;23.40;99.90
16040;DHT22;8124;48.634;8.120;2023-09-19T12:34:51;23.30;99.90
16040;DHT22;8124;48.634;8.120;2023-09-19T12:40:04;23.40;99.90
16040;DHT22;8124;48.634;8.120;2023-09-19T12:45:18;23.60;99.90
16040;DHT22;8124;48.634;8.120;2023-09-19T12:50:21;23.60;99.90
16040;DHT22;8124;48.634;8.120;2023-09-19T12:55:32;23.60;99.90
16040;DHT22;8124;48.634;8.120;2023-09-19T13:00:36;23.60;99.90
16040;DHT22;8124;48.634;8.120;2023-09-19T13:05:53;23.70;99.90
16040;DHT22;8124;48.634;8.120;2023-09-19T13:11:10;23.80;99.20
16040;DHT22;8124;48.634;8.120;2023-09-19T13:16:15;24.00;98.40
16040;DHT22;8124;48.634;8.120;2023-09-19T13:21:30;23.90;97.50
16040;DHT22;8124;48.634;8.120;2023-09-19T13:26:42;24.00;96.80
16040;DHT22;8124;48.634;8.120;2023-09-19T13:31:46;24.20;96.60
16040;DHT22;8124;48.634;8.120;2023-09-19T13:36:49;24.20;95.90
16040;DHT22;8124;48.634;8.120;2023-09-19T13:41:54;24.30;95.70
16040;DHT22;8124;48.634;8.120;2023-09-19T13:46:57;24.40;95.60
16040;DHT22;8124;48.634;8.120;2023-09-19T13:52:00;24.40;95.00
16040;DHT22;8124;48.634;8.120;2023-09-19T13:57:07;24.20;94.10
16040;DHT22;8124;48.634;8.120;2023-09-19T14:02:12;24.10;93.70
16040;DHT22;8124;48.634;8.120;2023-09-19T14:07:16;24.10;93.40
16040;DHT22;8124;48.634;8.120;2023-09-19T14:12:21;24.30;93.60
16040;DHT22;8124;48.634;8.120;2023-09-19T14:17:24;24.30;93.30
16040;DHT22;8124;48.634;8.120;2023-09-19T14:22:28;24.30;93.20
16040;DHT22;8124;48.634;8.120;2023-09-19T14:27:32;24.50;93.50
16040;DHT22;8124;48.634;8.120;2023-09-19T14:32:37;24.50;93.10
16040;DHT22;8124;48.634;8.120;2023-09-19T14:37:43;24.40;92.70
16040;DHT22;8124;48.634;8.120;2023-09-19T14:42:54;24.30;91.80
16040;DHT22;8124;48.634;8.120;2023-09-19T14:48:17;24.40;91.10
16040;DHT22;8124;48.634;8.120;2023-09-19T14:53:23;24.40;90.90
16040;DHT22;8124;48.634;8.120;2023-09-19T14:58:28;24.30;90.50
16040;DHT22;8124;48.634;8.120;2023-09-19T15:03:35;24.30;90.10
16040;DHT22;8124;48.634;8.120;2023-09-19T15:08:39;24.50;90.20
16040;DHT22;8124;48.634;8.120;2023-09-19T15:13:48;24.60;90.50
16040;DHT22;8124;48.634;8.120;2023-09-19T15:18:53;24.80;90.80
16040;DHT22;8124;48.634;8.120;2023-09-19T15:24:03;24.70;90.60
16040;DHT22;8124;48.634;8.120;2023-09-19T15:29:09;24.30;89.50
16040;DHT22;8124;48.634;8.120;2023-09-19T15:34:19;24.30;88.80
16040;DHT22;8124;48.634;8.120;2023-09-19T15:39:30;24.30;88.90
16040;DHT22;8124;48.634;8.120;2023-09-19T15:44:39;24.40;90.20
16040;DHT22;8124;48.634;8.120;2023-09-19T15:49:44;24.50;91.00
16040;DHT22;8124;48.634;8.120;2023-09-19T15:54:48;24.50;91.20
16040;DHT22;8124;48.634;8.120;2023-09-19T15:59:55;24.40;90.70
16040;DHT22;8124;48.634;8.120;2023-09-19T16:05:00;24.30;90.10
16040;DHT22;8124;48.634;8.120;2023-09-19T16:10:04;24.30;90.10
16040;DHT22;8124;48.634;8.120;2023-09-19T16:15:09;24.10;89.50
16040;DHT22;8124;48.634;8.120;2023-09-19T16:20:15;24.10;90.00
16040;DHT22;8124;48.634;8.120;2023-09-19T16:25:18;24.10;90.80
16040;DHT22;8124;48.634;8.120;2023-09-19T16:30:23;24.30;92.00
16040;DHT22;8124;48.634;8.120;2023-09-19T16:35:28;24.60;93.80
16040;DHT22;8124;48.634;8.120;2023-09-19T16:40:37;24.70;95.30
16040;DHT22;8124;48.634;8.120;2023-09-19T16:45:54;24.70;96.10
16040;DHT22;8124;48.634;8.120;2023-09-19T16:51:11;24.60;96.30
16040;DHT22;8124;48.634;8.120;2023-09-19T16:56:26;24.60;96.50
16040;DHT22;8124;48.634;8.120;2023-09-19T17:01:32;24.50;96.80
16040;DHT22;8124;48.634;8.120;2023-09-19T17:06:43;24.30;96.50
16040;DHT22;8124;48.634;8.120;2023-09-19T17:11:48;24.40;97.00
16040;DHT22;8124;48.634;8.120;2023-09-19T17:16:53;24.30;98.20
16040;DHT22;8124;48.634;8.120;2023-09-19T17:21:56;24.20;99.30
16040;DHT22;8124;48.634;8.120;2023-09-19T17:27:10;24.10;99.80
16040;DHT22;8124;48.634;8.120;2023-09-19T17:32:15;24.10;99.90
16040;DHT22;8124;48.634;8.120;2023-09-19T17:37:19;23.90;99.90
16040;DHT22;8124;48.634;8.120;2023-09-19T17:42:25;23.70;99.90
16040;DHT22;8124;48.634;8.120;2023-09-19T17:47:33;23.60;99.90
16040;DHT22;8124;48.634;8.120;2023-09-19T17:52:41;23.60;99.90
16040;DHT22;8124;48.634;8.120;2023-09-19T17:57:51;23.30;99.90
16040;DHT22;8124;48.634;8.120;2023-09-19T18:03:22;23.20;99.90
16040;DHT22;8124;48.634;8.120;2023-09-19T18:08:46;23.00;99.90
16040;DHT22;8124;48.634;8.120;2023-09-19T18:13:53;23.00;99.90
16040;DHT22;8124;48.634;8.120;2023-09-19T18:19:02;22.80;99.90
16040;DHT22;8124;48.634;8.120;2023-09-19T18:24:07;22.40;99.90
16040;DHT22;8124;48.634;8.120;2023-09-19T18:29:21;22.30;99.90
16040;DHT22;8124;48.634;8.120;2023-09-19T18:34:30;22.30;99.90
16040;DHT22;8124;48.634;8.120;2023-09-19T18:39:53;22.20;99.90
16040;DHT22;8124;48.634;8.120;2023-09-19T18:45:05;22.50;99.90
16040;DHT22;8124;48.634;8.120;2023-09-19T18:50:13;22.50;99.90
16040;DHT22;8124;48.634;8.120;2023-09-19T18:55:50;22.20;99.90
16040;DHT22;8124;48.634;8.120;2023-09-19T19:01:09;21.90;99.90
16040;DHT22;8124;48.634;8.120;2023-09-19T19:06:20;21.80;99.90
16040;DHT22;8124;48.634;8.120;2023-09-19T19:11:24;21.80;99.90
16040;DHT22;8124;48.634;8.120;2023-09-19T19:16:35;21.80;99.90
16040;DHT22;8124;48.634;8.120;2023-09-19T19:21:40;21.70;99.90
16040;DHT22;8124;48.634;8.120;2023-09-19T19:26:48;21.70;99.90
16040;DHT22;8124;48.634;8.120;2023-09-19T19:31:51;21.50;99.90
16040;DHT22;8124;48.634;8.120;2023-09-19T19:36:57;21.50;99.90
16040;DHT22;8124;48.634;8.120;2023-09-19T19:42:00;21.60;99.90
16040;DHT22;8124;48.634;8.120;2023-09-19T19:47:03;21.50;99.90
16040;DHT22;8124;48.634;8.120;2023-09-19T19:52:09;21.50;99.90
16040;DHT22;8124;48.634;8.120;2023-09-19T19:57:13;21.60;99.90
16040;DHT22;8124;48.634;8.120;2023-09-19T20:02:16;21.40;99.90
16040;DHT22;8124;48.634;8.120;2023-09-19T20:07:21;21.30;99.90
16040;DHT22;8124;48.634;8.120;2023-09-19T20:12:24;21.30;99.90
16040;DHT22;8124;48.634;8.120;2023-09-19T20:17:27;21.20;99.90
16040;DHT22;8124;48.634;8.120;2023-09-19T20:22:32;21.30;99.90
16040;DHT22;8124;48.634;8.120;2023-09-19T20:27:38;21.10;99.90
16040;DHT22;8124;48.634;8.120;2023-09-19T20:32:41;21.10;99.90
16040;DHT22;8124;48.634;8.120;2023-09-19T20:37:47;21.10;99.90
16040;DHT22;8124;48.634;8.120;2023-09-19T20:42:51;21.00;99.90
16040;DHT22;8124;48.634;8.120;2023-09-19T20:47:55;21.00;99.90
16040;DHT22;8124;48.634;8.120;2023-09-19T20:53:01;21.10;99.90
16040;DHT22;8124;48.634;8.120;2023-09-19T20:58:04;21.10;99.90
16040;DHT22;8124;48.634;8.120;2023-09-19T21:03:07;21.00;99.90
16040;DHT22;8124;48.634;8.120;2023-09-19T21:08:17;21.00;99.90
16040;DHT22;8124;48.634;8.120;2023-09-19T21:13:20;20.90;99.90
16040;DHT22;8124;48.634;8.120;2023-09-19T21:18:23;20.90;99.90
16040;DHT22;8124;48.634;8.120;2023-09-19T21:23:27;20.90;99.90
16040;DHT22;8124;48.634;8.120;2023-09-19T21:28:31;20.80;99.90
16040;DHT22;8124;48.634;8.120;2023-09-19T21:33:35;20.80;99.90
16040;DHT22;8124;48.634;8.120;2023-09-19T21:38:40;20.80;99.90
16040;DHT22;8124;48.634;8.120;2023-09-19T21:43:44;20.90;99.90
16040;DHT22;8124;48.634;8.120;2023-09-19T21:48:47;20.80;99.90
16040;DHT22;8124;48.634;8.120;2023-09-19T21:53:53;20.80;99.90
16040;DHT22;8124;48.634;8.120;2023-09-19T21:58:59;20.70;99.90
16040;DHT22;8124;48.634;8.120;2023-09-19T22:04:02;20.70;99.90
16040;DHT22;8124;48.634;8.120;2023-09-19T22:09:06;20.70;99.90
16040;DHT22;8124;48.634;8.120;2023-09-19T22:14:10;20.60;99.90
16040;DHT22;8124;48.634;8.120;2023-09-19T22:19:14;20.60;99.90
16040;DHT22;8124;48.634;8.120;2023-09-19T22:24:19;20.60;99.90
16040;DHT22;8124;48.634;8.120;2023-09-19T22:29:23;20.60;99.90
16040;DHT22;8124;48.634;8.120;2023-09-19T22:34:26;20.60;99.90
16040;DHT22;8124;48.634;8.120;2023-09-19T22:39:30;20.60;99.90
16040;DHT22;8124;48.634;8.120;2023-09-19T22:44:37;20.60;99.90
16040;DHT22;8124;48.634;8.120;2023-09-19T22:49:40;20.60;99.90
16040;DHT22;8124;48.634;8.120;2023-09-19T22:54:45;20.60;99.90
16040;DHT22;8124;48.634;8.120;2023-09-19T22:59:49;20.60;99.90
16040;DHT22;8124;48.634;8.120;2023-09-19T23:04:53;20.50;99.90
16040;DHT22;8124;48.634;8.120;2023-09-19T23:10:04;20.60;99.90
16040;DHT22;8124;48.634;8.120;2023-09-19T23:15:08;20.60;99.90
16040;DHT22;8124;48.634;8.120;2023-09-19T23:20:16;20.60;99.90
16040;DHT22;8124;48.634;8.120;2023-09-19T23:25:22;20.60;99.90
16040;DHT22;8124;48.634;8.120;2023-09-19T23:30:30;20.50;99.90
16040;DHT22;8124;48.634;8.120;2023-09-19T23:35:34;20.50;99.90
16040;DHT22;8124;48.634;8.120;2023-09-19T23:40:39;20.50;99.90
16040;DHT22;8124;48.634;8.120;2023-09-19T23:45:42;20.50;99.90
16040;DHT22;8124;48.634;8.120;2023-09-19T23:50:47;20.50;99.90
16040;DHT22;8124;48.634;8.120;2023-09-19T23:55:52;20.40;99.90
